CZVL weather

Edmonton / Villeneuve Airport
Edmonton, Alberta, Canada

Public forecast

Using degrees Celsius for public forecast. Weather courtesy of forecast.io.

METAR (pilot weather report)

Retrieved 2019/07/22 17:00 UTC (26 minutes ago):

CZVL 221700Z AUTO 17009KT 150V210 9SM CLR 20/14 A3009 RMK SLP191 DENSITY ALT 3100FT

TAF (pilot weather forecast)

Retrieved 2019/07/22 12:00 UTC (5 hours ago):

TAF CZVL 221138Z 2212/2224 15006KT P6SM FEW050 FEW260 BECMG 2215/2217 17012KT RMK FCST BASED ON AUTO OBS. NXT FCST BY 221800Z